Time;durP1;ratioP1;P1;durP2;ratioP2;P2;SDS_P1;SDS_P2;PMS_P1;PMS_P2;Temp;Humidity;BMP_temperature;BMP_pressure;BME280_temperature;BME280_humidity;BME280_pressure;Samples;Min_cycle;Max_cycle;Signal;HPM_P1;HPM_P2
2022/02/21 00:01:00;;;;;;;7.32;1.67;;;;;;;5.71;100.00;67409.19;5007239;28;20482;-91
2022/02/21 00:03:34;;;;;;;5.95;1.63;;;;;;;5.61;100.00;67406.94;5021234;28;20081;-90
2022/02/21 00:06:06;;;;;;;6.50;1.27;;;;;;;5.58;100.00;67395.66;4996250;28;20127;-88
2022/02/21 00:08:38;;;;;;;8.27;1.52;;;;;;;;;;5003255;28;20044;-88
2022/02/21 00:11:04;;;;;;;4.25;1.40;;;;;;;5.63;100.00;67400.72;5020949;28;20056;-88
2022/02/21 00:13:29;;;;;;;8.32;1.42;;;;;;;5.60;100.00;67397.31;5020618;28;20423;-87
2022/02/21 00:16:04;;;;;;;6.93;1.65;;;;;;;5.65;100.00;67406.19;5024637;28;20053;-90
2022/02/21 00:18:31;;;;;;;6.68;1.20;;;;;;;5.59;100.00;67396.75;5014416;28;20123;-87
2022/02/21 00:20:56;;;;;;;6.10;1.20;;;;;;;5.60;100.00;67397.31;5029619;28;20041;-89
2022/02/21 00:23:22;;;;;;;5.10;1.48;;;;;;;5.59;100.00;67396.75;5009515;28;20084;-87
2022/02/21 00:25:50;;;;;;;7.38;1.10;;;;;;;5.62;100.00;67399.59;5026855;28;20041;-90
2022/02/21 00:28:16;;;;;;;8.82;1.63;;;;;;;5.62;100.00;67402.22;5025248;28;20052;-85
2022/02/21 00:30:41;;;;;;;6.03;1.60;;;;;;;5.66;100.00;67407.31;5022655;28;20046;-87
2022/02/21 00:33:09;;;;;;;3.13;0.80;;;;;;;;;;5030819;28;20042;-90
2022/02/21 00:35:34;;;;;;;8.80;1.25;;;;;;;5.61;100.00;67401.66;5013405;28;20041;-85
2022/02/21 00:37:59;;;;;;;7.05;1.17;;;;;;;5.62;100.00;67400.16;4998935;28;20037;-93
2022/02/21 00:40:26;;;;;;;6.97;1.15;;;;;;;5.65;100.00;67402.97;5006455;28;20493;-89
2022/02/21 00:42:52;;;;;;;5.72;1.40;;;;;;;;;;5032841;28;20052;-92
2022/02/21 00:45:17;;;;;;;6.63;1.33;;;;;;;5.66;100.00;67404.09;5012716;28;20049;-88
2022/02/21 00:47:45;;;;;;;5.93;1.45;;;;;;;;;;5011017;28;20048;-90
2022/02/21 00:50:13;;;;;;;8.18;2.15;;;;;;;;;;5010244;28;20058;-89
2022/02/21 00:52:39;;;;;;;7.17;2.20;;;;;;;;;;5027728;28;20494;-93
2022/02/21 00:55:07;;;;;;;12.35;2.33;;;;;;;5.58;100.00;67395.06;5030263;28;20159;-89
2022/02/21 00:57:39;;;;;;;7.90;1.48;;;;;;;5.54;100.00;67391.13;5025113;28;20037;-89
2022/02/21 01:00:07;;;;;;;18.75;1.10;;;;;;;5.47;100.00;67383.22;5039285;28;20042;-86
2022/02/21 01:02:39;;;;;;;8.07;1.20;;;;;;;5.48;100.00;67384.34;5014229;28;22372;-90
2022/02/21 01:05:05;;;;;;;6.18;1.65;;;;;;;5.40;100.00;67375.28;5012947;28;20060;-93
2022/02/21 01:07:36;;;;;;;7.97;1.50;;;;;;;5.27;100.00;67361.19;5026787;28;20037;-88
2022/02/21 01:10:07;;;;;;;4.40;1.38;;;;;;;5.30;100.00;67364.00;5024474;28;20573;-93
2022/02/21 01:12:40;;;;;;;8.57;1.65;;;;;;;;;;5029481;28;20064;-89
2022/02/21 01:15:10;;;;;;;9.73;1.80;;;;;;;5.33;100.00;67367.41;5020398;28;20430;-86
2022/02/21 01:17:37;;;;;;;13.15;2.60;;;;;;;5.30;100.00;67364.56;5027634;28;20042;-90
2022/02/21 01:20:06;;;;;;;6.25;1.58;;;;;;;;;;5012015;28;20033;-89
2022/02/21 01:22:33;;;;;;;6.93;1.90;;;;;;;5.21;100.00;67354.41;5045730;28;20041;-90
2022/02/21 01:25:00;;;;;;;9.57;2.42;;;;;;;5.16;100.00;67349.31;5020535;28;20072;-90
2022/02/21 01:27:31;;;;;;;13.18;2.38;;;;;;;;;;5024382;28;20130;-88
2022/02/21 01:30:03;;;;;;;9.73;1.95;;;;;;;;;;5013005;28;20501;-88
2022/02/21 01:32:30;;;;;;;6.97;1.58;;;;;;;5.09;100.00;67340.84;5014038;28;20060;-87
2022/02/21 01:35:11;;;;;;;9.73;2.10;;;;;;;5.06;100.00;67340.66;5030151;28;20099;-88
2022/02/21 01:37:38;;;;;;;10.57;2.42;;;;;;;;;;5008811;28;20052;-87
2022/02/21 01:40:10;;;;;;;9.85;2.08;;;;;;;;;;5027019;28;21179;-88
2022/02/21 01:42:37;;;;;;;5.47;1.40;;;;;;;5.03;100.00;67334.63;5041497;28;20042;-90
2022/02/21 01:45:03;;;;;;;6.90;1.80;;;;;;;5.05;100.00;67336.31;5028155;28;21484;-87
2022/02/21 01:47:31;;;;;;;10.15;1.80;;;;;;;;;;5015639;28;20537;-87
2022/02/21 01:50:03;;;;;;;5.30;1.60;;;;;;;5.03;100.00;67334.63;5026574;28;20064;-91
2022/02/21 01:52:28;;;;;;;10.18;2.13;;;;;;;5.02;100.00;67332.94;5019428;28;20146;-89
2022/02/21 01:54:59;;;;;;;12.00;2.70;;;;;;;5.05;100.00;67341.59;5017806;28;20136;-89
2022/02/21 01:57:28;;;;;;;12.55;2.08;;;;;;;4.98;100.00;67329.56;5049335;28;20601;-88
2022/02/21 01:59:55;;;;;;;8.52;2.03;;;;;;;5.05;100.00;67336.88;5035090;28;20036;-85
2022/02/21 02:02:22;;;;;;;12.57;2.45;;;;;;;5.09;99.17;67340.84;5031036;28;20051;-87
2022/02/21 02:04:49;;;;;;;10.65;1.75;;;;;;;5.08;97.39;67340.28;5026740;28;20056;-91
2022/02/21 02:07:20;;;;;;;12.98;2.28;;;;;;;5.14;96.45;67349.69;5015171;28;20441;-90
2022/02/21 02:09:46;;;;;;;7.38;1.73;;;;;;;5.14;96.03;67347.03;4995865;28;20056;-90
2022/02/21 02:12:11;;;;;;;8.95;1.80;;;;;;;5.08;95.39;67340.28;5029012;28;20438;-86
2022/02/21 02:14:40;;;;;;;10.18;2.75;;;;;;;5.09;97.57;67346.69;5009269;28;20126;-88
2022/02/21 02:17:17;;;;;;;9.50;1.83;;;;;;;4.97;97.26;67330.47;5004942;28;20040;-88
2022/02/21 02:19:45;;;;;;;14.48;2.80;;;;;;;4.86;100.00;67315.41;5023386;28;20088;-89
2022/02/21 02:22:21;;;;;;;14.52;2.90;;;;;;;4.80;100.00;67308.66;5027288;28;20402;-92
2022/02/21 02:24:51;;;;;;;11.20;3.60;;;;;;;4.71;100.00;67301.69;5039908;28;20045;-88
2022/02/21 02:27:20;;;;;;;10.35;2.50;;;;;;;4.66;100.00;67293.97;5022920;28;20053;-90
2022/02/21 02:29:48;;;;;;;20.23;3.10;;;;;;;;;;5006287;28;20133;-85
2022/02/21 02:32:15;;;;;;;10.70;1.70;;;;;;;4.64;100.00;67291.72;5005882;28;20180;-87
2022/02/21 02:34:47;;;;;;;12.05;2.15;;;;;;;4.62;100.00;67292.09;5000882;28;20053;-86
2022/02/21 02:37:14;;;;;;;11.63;1.85;;;;;;;4.60;100.00;67286.63;5006383;28;20545;-88
2022/02/21 02:39:45;;;;;;;12.63;2.33;;;;;;;;;;5011921;28;20045;-89
2022/02/21 02:42:12;;;;;;;10.90;3.72;;;;;;;4.58;100.00;67284.94;5007212;28;20073;-88
2022/02/21 02:44:41;;;;;;;10.20;2.75;;;;;;;4.52;99.59;67278.19;5016469;28;20314;-90
2022/02/21 02:47:13;;;;;;;15.43;2.72;;;;;;;4.53;100.00;67279.84;5010401;28;20061;-90
2022/02/21 02:49:44;;;;;;;9.63;1.70;;;;;;;4.51;99.12;67277.03;5009577;28;20187;-84
2022/02/21 02:52:11;;;;;;;11.35;2.47;;;;;;;4.53;100.00;67279.28;5026613;28;20068;-89
2022/02/21 02:54:38;;;;;;;10.50;2.40;;;;;;;4.51;98.00;67282.31;5030815;28;20045;-92
2022/02/21 02:57:08;;;;;;;12.52;2.28;;;;;;;4.53;97.85;67279.84;5009871;28;20045;-92
2022/02/21 02:59:35;;;;;;;9.30;2.03;;;;;;;4.56;96.54;67282.69;5010986;28;20048;-93
2022/02/21 03:02:02;;;;;;;10.95;2.50;;;;;;;4.56;97.54;67282.69;4992293;28;20049;-88
2022/02/21 03:04:41;;;;;;;8.93;2.47;;;;;;;4.53;97.78;67279.84;5034538;28;20102;-86
2022/02/21 03:07:11;;;;;;;6.80;1.83;;;;;;;4.12;100.00;67236.78;5027796;28;20046;-90
2022/02/21 03:09:44;;;;;;;8.95;1.80;;;;;;;3.90;100.00;67209.31;5022647;28;20049;-89
2022/02/21 03:12:10;;;;;;;14.30;2.88;;;;;;;3.84;100.00;67206.31;5027454;28;20050;-89
2022/02/21 03:14:43;;;;;;;11.15;2.22;;;;;;;3.77;100.00;67198.41;4992282;28;20073;-90
2022/02/21 03:17:10;;;;;;;10.00;2.05;;;;;;;3.78;100.00;67196.91;5037030;28;20517;-86
2022/02/21 03:19:41;;;;;;;18.88;3.67;;;;;;;;;;5037002;28;20045;-90
2022/02/21 03:22:08;;;;;;;12.43;2.42;;;;;;;3.81;100.00;67200.28;5010466;28;20057;-90
2022/02/21 03:24:39;;;;;;;12.70;2.97;;;;;;;3.88;100.00;67212.88;5001131;28;20041;-87
2022/02/21 03:27:10;;;;;;;12.40;2.58;;;;;;;3.95;100.00;67218.16;4994458;28;20124;-86
2022/02/21 03:29:46;;;;;;;13.27;2.40;;;;;;;4.02;100.00;67217.59;5024010;28;20079;-92
2022/02/21 03:32:13;;;;;;;10.13;1.50;;;;;;;4.06;98.58;67227.94;5042642;28;20518;-86
2022/02/21 03:34:47;;;;;;;7.78;1.73;;;;;;;4.10;97.63;67231.88;4998614;28;20045;-87
2022/02/21 03:37:14;;;;;;;12.07;2.65;;;;;;;4.16;98.77;67240.72;5011594;28;20064;-90
2022/02/21 03:39:44;;;;;;;14.45;2.15;;;;;;;;;;5016811;28;20406;-86
2022/02/21 03:42:11;;;;;;;9.57;2.53;;;;;;;4.19;96.49;67241.47;5027108;28;20038;-85
2022/02/21 03:44:36;;;;;;;8.38;1.67;;;;;;;4.14;93.91;67236.41;4995658;28;20064;-88
2022/02/21 03:47:01;;;;;;;8.13;1.90;;;;;;;;;;5013814;28;20049;-89
2022/02/21 03:49:33;;;;;;;9.27;2.85;;;;;;;4.14;95.84;67241.66;5022876;28;20064;-90
2022/02/21 03:51:59;;;;;;;6.68;1.30;;;;;;;;;;5022234;28;20135;-89
2022/02/21 03:54:24;;;;;;;11.32;2.83;;;;;;;4.05;94.04;67226.81;5022690;28;20111;-87
2022/02/21 03:56:50;;;;;;;8.02;1.67;;;;;;;4.06;95.31;67230.03;5026901;28;20045;-89
2022/02/21 03:59:15;;;;;;;6.45;1.58;;;;;;;;;;5027492;28;20125;-88
2022/02/21 04:01:40;;;;;;;13.23;3.08;;;;;;;4.00;94.65;67220.59;5041415;28;20049;-88
2022/02/21 04:04:06;;;;;;;15.25;3.67;;;;;;;4.02;95.67;67222.84;5047249;28;20071;-92
2022/02/21 04:06:31;;;;;;;9.70;2.13;;;;;;;4.00;92.99;67223.22;5033330;28;20048;-87
2022/02/21 04:08:58;;;;;;;13.70;2.25;;;;;;;4.05;93.48;67226.25;5046036;28;20497;-87
2022/02/21 04:11:25;;;;;;;15.45;2.92;;;;;;;4.06;93.66;67230.03;5045756;28;20048;-90
2022/02/21 04:13:59;;;;;;;12.80;2.30;;;;;;;4.05;94.03;67226.25;5017773;28;20490;-90
2022/02/21 04:16:31;;;;;;;5.65;1.52;;;;;;;4.02;93.14;67222.84;5052593;28;20047;-86
2022/02/21 04:18:57;;;;;;;8.27;2.10;;;;;;;4.06;92.81;67227.38;5025733;28;20465;-89
2022/02/21 04:21:23;;;;;;;12.95;2.22;;;;;;;4.10;95.13;67231.31;5024429;28;20125;-90
2022/02/21 04:23:50;;;;;;;12.38;2.22;;;;;;;4.07;94.87;67229.06;5047815;28;20157;-89
2022/02/21 04:26:15;;;;;;;9.07;1.98;;;;;;;;;;5042522;28;20044;-87
2022/02/21 04:28:41;;;;;;;11.05;1.95;;;;;;;4.08;95.00;67229.63;5030925;28;20026;-86
2022/02/21 04:31:06;;;;;;;10.52;1.88;;;;;;;4.00;93.16;67225.84;5034942;28;20518;-87
2022/02/21 04:33:33;;;;;;;8.18;2.15;;;;;;;4.02;92.92;67222.84;5026261;28;20041;-90
2022/02/21 04:36:01;;;;;;;16.23;2.75;;;;;;;4.03;94.33;67219.28;5039983;28;20075;-86
2022/02/21 04:38:26;;;;;;;12.73;2.30;;;;;;;3.98;93.57;67218.34;5016264;28;20057;-86
2022/02/21 04:40:52;;;;;;;11.10;1.92;;;;;;;3.90;94.31;67209.31;5035510;28;20042;-86
2022/02/21 04:43:20;;;;;;;13.95;2.67;;;;;;;3.85;96.29;67209.50;5022600;28;20488;-90
2022/02/21 04:45:48;;;;;;;8.70;1.60;;;;;;;;;;5018321;28;20045;-87
2022/02/21 04:48:19;;;;;;;13.85;1.98;;;;;;;3.79;95.75;67197.47;5041721;28;20072;-87
2022/02/21 04:50:46;;;;;;;11.23;2.05;;;;;;;3.79;96.12;67198.03;4996725;28;20048;-90
2022/02/21 04:53:12;;;;;;;10.13;1.98;;;;;;;3.78;97.22;67199.53;5000071;28;20056;-88
2022/02/21 04:55:39;;;;;;;7.22;2.05;;;;;;;3.70;96.30;67190.50;5020768;28;20399;-89
2022/02/21 04:58:04;;;;;;;10.52;2.33;;;;;;;3.69;98.05;67192.03;5042539;28;20033;-88
2022/02/21 05:00:30;;;;;;;9.07;2.15;;;;;;;3.59;97.05;67181.28;5027047;28;20155;-87
2022/02/21 05:02:58;;;;;;;11.38;2.05;;;;;;;3.57;96.95;67173.22;5042823;28;20049;-85
2022/02/21 05:05:24;;;;;;;10.65;2.17;;;;;;;3.54;97.33;67169.81;5023440;28;20490;-85
2022/02/21 05:07:50;;;;;;;10.32;1.48;;;;;;;3.51;97.22;67167.03;5035057;28;20041;-85
2022/02/21 05:10:15;;;;;;;8.25;1.63;;;;;;;3.50;97.86;67170.59;5048588;28;20049;-85
2022/02/21 05:12:50;;;;;;;8.27;1.88;;;;;;;3.47;97.27;67167.75;5037622;28;20065;-85
2022/02/21 05:15:15;;;;;;;8.95;2.20;;;;;;;3.44;96.56;67158.56;5017484;28;20517;-86
2022/02/21 05:17:41;;;;;;;14.90;2.83;;;;;;;3.46;96.92;67160.81;5032114;28;20045;-89
2022/02/21 05:20:10;;;;;;;9.73;2.10;;;;;;;3.46;96.34;67163.44;5028571;28;20529;-90
2022/02/21 05:22:37;;;;;;;7.28;1.63;;;;;;;3.47;93.94;67162.50;5011006;28;20041;-88
2022/02/21 05:25:04;;;;;;;10.90;2.17;;;;;;;3.55;94.92;67176.22;4998032;28;20041;-92
2022/02/21 05:27:33;;;;;;;14.23;2.15;;;;;;;;;;5028521;28;20047;-91
2022/02/21 05:30:02;;;;;;;13.95;2.55;;;;;;;3.63;94.66;67180.00;5035825;28;20046;-86
2022/02/21 05:32:35;;;;;;;11.65;1.92;;;;;;;;;;5042433;28;20128;-85
2022/02/21 05:35:03;;;;;;;15.02;2.58;;;;;;;3.61;90.83;67178.28;5021562;28;20049;-87
2022/02/21 05:37:28;;;;;;;8.52;1.63;;;;;;;;;;5023463;28;20041;-86
2022/02/21 05:39:54;;;;;;;16.85;2.58;;;;;;;;;;5029027;28;20038;-89
2022/02/21 05:42:20;;;;;;;11.45;2.35;;;;;;;3.73;91.40;67190.69;5014315;28;20045;-90
2022/02/21 05:44:47;;;;;;;14.00;2.47;;;;;;;3.72;89.64;67190.16;5027904;28;20548;-89
2022/02/21 05:47:19;;;;;;;16.63;3.15;;;;;;;3.79;88.73;67198.03;5012536;28;20045;-87
2022/02/21 05:49:45;;;;;;;12.75;2.42;;;;;;;3.82;89.59;67200.84;5010771;28;20124;-89
2022/02/21 05:52:14;;;;;;;14.85;2.80;;;;;;;;;;4994459;28;20129;-87
2022/02/21 05:54:39;;;;;;;;;;;;;;;;;;5024205;28;20495;-87
2022/02/21 05:57:05;;;;;;;8.73;1.55;;;;;;;3.84;86.45;67203.13;5041224;28;19924;-88
2022/02/21 05:59:37;;;;;;;10.98;2.13;;;;;;;3.89;87.20;67208.19;5007428;28;20073;-89
2022/02/21 06:02:04;;;;;;;8.15;1.98;;;;;;;3.90;86.41;67209.31;4994061;28;20065;-88
2022/02/21 06:04:36;;;;;;;13.00;2.15;;;;;;;;;;5026247;28;20417;-89
2022/02/21 06:07:02;;;;;;;11.13;2.28;;;;;;;3.94;86.95;67219.09;5009513;28;20183;-87
2022/02/21 06:09:28;;;;;;;9.27;2.03;;;;;;;3.95;86.82;67217.59;5029878;28;20359;-88
2022/02/21 06:11:54;;;;;;;7.60;1.77;;;;;;;3.97;86.29;67219.84;4995588;28;20056;-88
2022/02/21 06:14:21;;;;;;;10.40;2.40;;;;;;;3.95;86.01;67215.53;4993339;28;20056;-88
2022/02/21 06:16:51;;;;;;;13.60;2.40;;;;;;;3.95;86.34;67217.59;5028000;28;20065;-88
2022/02/21 06:19:19;;;;;;;11.65;3.20;;;;;;;3.99;87.95;67219.47;5026756;28;20049;-89
2022/02/21 06:21:45;;;;;;;10.27;2.92;;;;;;;3.98;87.74;67218.91;5025685;28;20034;-86
2022/02/21 06:24:16;;;;;;;12.52;3.53;;;;;;;3.97;88.48;67220.44;5007875;28;20401;-90
2022/02/21 06:26:48;;;;;;;15.60;2.30;;;;;;;;;;5013672;28;20041;-91
2022/02/21 06:29:15;;;;;;;8.70;2.33;;;;;;;3.95;86.78;67220.22;5043121;28;20045;-88
2022/02/21 06:31:41;;;;;;;6.13;1.45;;;;;;;3.95;86.41;67215.53;5023787;28;20152;-88
2022/02/21 06:34:09;;;;;;;12.48;2.35;;;;;;;3.98;86.66;67218.34;5026811;28;20045;-88
2022/02/21 06:36:35;;;;;;;10.77;2.28;;;;;;;4.02;89.90;67222.84;5026026;28;20045;-89
2022/02/21 06:39:02;;;;;;;10.07;2.30;;;;;;;3.99;86.97;67224.75;5026111;28;20491;-88
2022/02/21 06:41:28;;;;;;;6.35;1.45;;;;;;;4.02;87.79;67225.50;5016735;28;20053;-88
2022/02/21 06:43:54;;;;;;;11.68;2.65;;;;;;;4.09;90.19;67232.84;5007507;28;20512;-89
2022/02/21 06:46:19;;;;;;;12.68;1.90;;;;;;;4.03;86.84;67226.63;4997241;28;20048;-89
2022/02/21 06:48:53;;;;;;;9.15;2.00;;;;;;;;;;5026480;28;20052;-87
2022/02/21 06:51:22;;;;;;;10.30;2.10;;;;;;;4.06;87.74;67227.94;5001496;28;20050;-88
2022/02/21 06:53:54;;;;;;;10.18;2.45;;;;;;;4.07;88.35;67229.06;5009983;28;20394;-90
2022/02/21 06:56:20;;;;;;;15.18;2.85;;;;;;;4.08;88.22;67229.63;5004726;28;20033;-87
2022/02/21 06:58:46;;;;;;;13.82;2.60;;;;;;;4.08;87.87;67232.25;5024447;28;20382;-88
2022/02/21 07:01:14;;;;;;;9.15;2.13;;;;;;;4.07;88.56;67231.13;5010116;28;20041;-90
2022/02/21 07:03:40;;;;;;;11.27;2.43;;;;;;;4.06;88.91;67227.38;5022450;28;20133;-87
2022/02/21 07:06:12;;;;;;;11.88;1.70;;;;;;;;;;5026651;28;20427;-90
2022/02/21 07:08:49;;;;;;;13.70;2.53;;;;;;;4.06;90.33;67220.03;4994811;28;20038;-90
2022/02/21 07:11:15;;;;;;;10.18;2.50;;;;;;;4.04;90.08;67228.31;5027789;28;20038;-86
2022/02/21 07:13:42;;;;;;;9.98;1.77;;;;;;;4.01;89.16;67224.38;5028321;28;20041;-86
2022/02/21 07:16:10;;;;;;;10.68;2.35;;;;;;;;;;5030016;28;20040;-87
2022/02/21 07:18:38;;;;;;;12.50;2.80;;;;;;;4.02;89.52;67228.13;5020655;28;20073;-86
2022/02/21 07:21:04;;;;;;;16.92;3.15;;;;;;;;;;5011018;28;20547;-88
2022/02/21 07:23:35;;;;;;;14.10;2.83;;;;;;;4.01;91.46;67222.28;5031919;28;20128;-92
2022/02/21 07:26:00;;;;;;;11.43;3.10;;;;;;;;;;5023411;28;20051;-86
2022/02/21 07:28:32;;;;;;;12.45;3.10;;;;;;;4.07;91.73;67228.50;5022348;28;20045;-89
2022/02/21 07:30:58;;;;;;;16.80;3.03;;;;;;;4.07;90.39;67228.50;5025721;28;20054;-89
2022/02/21 07:33:25;;;;;;;14.18;2.67;;;;;;;4.10;90.05;67233.97;5031533;28;20029;-91
2022/02/21 07:36:00;;;;;;;14.55;3.75;;;;;;;4.11;89.10;67233.00;5007467;28;20063;-91
2022/02/21 07:38:26;;;;;;;13.43;2.53;;;;;;;;;;5024542;28;20042;-89
2022/02/21 07:40:56;;;;;;;8.25;2.20;;;;;;;4.15;88.56;67236.97;5006605;28;20046;-87
2022/02/21 07:43:27;;;;;;;11.00;2.67;;;;;;;4.17;89.35;67242.44;5014267;28;20056;-89
2022/02/21 07:45:53;;;;;;;7.68;2.17;;;;;;;4.18;88.67;67240.91;5011903;28;20123;-90
2022/02/21 07:48:30;;;;;;;9.98;2.20;;;;;;;4.20;87.53;67248.44;4995499;28;20041;-89
2022/02/21 07:51:02;;;;;;;10.35;2.92;;;;;;;;;;5024063;28;20050;-88
2022/02/21 07:53:28;;;;;;;16.55;3.03;;;;;;;4.25;87.05;67248.81;5040665;28;20102;-88
2022/02/21 07:55:54;;;;;;;10.13;2.38;;;;;;;4.26;86.60;67255.22;4988425;28;20137;-87
2022/02/21 07:58:27;;;;;;;11.38;2.47;;;;;;;4.34;87.49;67260.47;5030685;28;20132;-89
2022/02/21 08:00:59;;;;;;;8.13;2.20;;;;;;;4.33;86.84;67259.91;5020259;28;20375;-86
2022/02/21 08:03:26;;;;;;;12.15;2.70;;;;;;;4.36;88.25;67260.09;5011160;28;20128;-87
2022/02/21 08:05:57;;;;;;;13.75;2.67;;;;;;;4.37;87.59;67264.44;5012965;28;20049;-90
2022/02/21 08:08:22;;;;;;;15.98;2.40;;;;;;;4.39;87.03;67264.06;5020721;28;20037;-88
2022/02/21 08:10:57;;;;;;;10.63;2.47;;;;;;;4.40;86.14;67264.63;5011171;28;20144;-92
2022/02/21 08:13:26;;;;;;;13.85;3.03;;;;;;;4.41;85.98;67266.31;5020403;28;20103;-86
2022/02/21 08:15:58;;;;;;;9.32;2.70;;;;;;;4.46;86.50;67271.97;5023590;28;20069;-86
2022/02/21 08:18:24;;;;;;;10.43;2.30;;;;;;;4.47;85.51;67275.16;5037542;28;20099;-88
2022/02/21 08:20:50;;;;;;;9.10;1.85;;;;;;;4.49;85.86;67274.78;5022298;28;20099;-89
2022/02/21 08:23:16;;;;;;;13.45;2.72;;;;;;;4.47;84.12;67273.09;4994476;28;20038;-88
2022/02/21 08:25:42;;;;;;;16.15;2.53;;;;;;;4.48;84.67;67273.66;5010943;28;20137;-85
2022/02/21 08:28:08;;;;;;;13.35;2.90;;;;;;;;;;5006014;28;20571;-89
2022/02/21 08:30:41;;;;;;;15.95;2.40;;;;;;;4.50;86.39;67278.53;5024609;28;20050;-89
2022/02/21 08:33:06;;;;;;;13.23;2.10;;;;;;;4.49;84.21;67277.44;4998200;28;20077;-88
2022/02/21 08:35:39;;;;;;;14.20;2.65;;;;;;;4.55;86.02;67283.63;5022855;28;20092;-87
2022/02/21 08:38:04;;;;;;;13.65;2.28;;;;;;;4.58;85.37;67284.94;4999902;28;20495;-89
2022/02/21 08:40:31;;;;;;;11.35;2.38;;;;;;;4.63;84.55;67293.22;5020528;28;20091;-86
2022/02/21 08:42:58;;;;;;;14.50;2.80;;;;;;;;;;5028972;28;20053;-91
2022/02/21 08:45:24;;;;;;;13.07;1.92;;;;;;;4.64;85.56;67291.72;5025917;28;20360;-89
2022/02/21 08:47:57;;;;;;;10.95;3.28;;;;;;;;;;5000532;28;20041;-91
2022/02/21 08:50:24;;;;;;;10.93;2.22;;;;;;;4.60;86.76;67286.63;5039971;28;20611;-88
2022/02/21 08:52:59;;;;;;;15.07;3.42;;;;;;;;;;5001022;28;20514;-87
2022/02/21 08:55:35;;;;;;;10.05;2.72;;;;;;;;;;5035787;28;20494;-89
2022/02/21 08:58:00;;;;;;;10.73;2.15;;;;;;;;;;5025628;28;20049;-87
2022/02/21 09:00:26;;;;;;;10.50;3.10;;;;;;;;;;5016551;28;20049;-92
2022/02/21 09:02:51;;;;;;;9.85;1.92;;;;;;;4.46;88.39;67274.03;5026885;28;20141;-89
2022/02/21 09:05:18;;;;;;;14.07;2.72;;;;;;;;;;5012260;28;20053;-89
2022/02/21 09:07:46;;;;;;;8.55;2.17;;;;;;;4.44;88.05;67269.13;5010735;28;20048;-89
2022/02/21 09:10:11;;;;;;;11.40;2.65;;;;;;;4.46;88.64;67274.03;5047044;28;20106;-87
2022/02/21 09:12:36;;;;;;;10.05;2.35;;;;;;;;;;5029086;28;20490;-89
2022/02/21 09:15:06;;;;;;;10.23;2.20;;;;;;;4.51;87.95;67282.88;5033272;28;20046;-86
2022/02/21 09:17:32;;;;;;;11.65;2.88;;;;;;;4.51;88.24;67277.59;5017938;28;20037;-88
2022/02/21 09:19:59;;;;;;;9.52;2.70;;;;;;;4.54;88.49;67280.41;5030184;28;20489;-88
2022/02/21 09:22:26;;;;;;;11.98;2.50;;;;;;;4.51;87.39;67277.59;5003836;28;20041;-87
2022/02/21 09:24:54;;;;;;;10.30;1.60;;;;;;;4.49;87.60;67275.34;5005927;28;20041;-90
2022/02/21 09:27:21;;;;;;;14.13;3.28;;;;;;;4.47;89.17;67272.53;5031277;28;20045;-89
2022/02/21 09:29:47;;;;;;;9.35;2.03;;;;;;;;;;5020778;28;20072;-88
2022/02/21 09:32:13;;;;;;;8.50;3.03;;;;;;;4.36;91.00;67260.66;5017052;28;20045;-88
2022/02/21 09:34:49;;;;;;;10.00;2.67;;;;;;;4.21;93.38;67246.94;5015300;28;20053;-87
2022/02/21 09:37:16;;;;;;;10.85;3.05;;;;;;;4.03;96.90;67224.00;5027323;28;20049;-87
2022/02/21 09:39:42;;;;;;;12.38;3.00;;;;;;;;;;5026323;28;20068;-88
2022/02/21 09:42:10;;;;;;;8.05;2.40;;;;;;;3.57;100.00;67175.84;5011213;28;20135;-87
2022/02/21 09:44:46;;;;;;;10.77;3.40;;;;;;;3.53;100.00;67168.69;5002208;28;20092;-88
2022/02/21 09:47:16;;;;;;;12.07;2.95;;;;;;;;;;5039714;28;20050;-86
2022/02/21 09:49:45;;;;;;;14.10;3.65;;;;;;;3.41;100.00;67155.19;5035446;28;20056;-86
2022/02/21 09:52:11;;;;;;;11.63;2.92;;;;;;;3.42;100.00;67161.56;5029877;28;20377;-85
2022/02/21 09:54:39;;;;;;;10.00;3.50;;;;;;;3.44;100.00;67158.56;5009355;28;20538;-89
2022/02/21 09:57:04;;;;;;;8.32;2.63;;;;;;;3.41;100.00;67158.38;5019589;28;20143;-86
2022/02/21 09:59:31;;;;;;;14.95;3.63;;;;;;;3.43;100.00;67157.44;5022372;28;20080;-88
2022/02/21 10:02:02;;;;;;;11.25;3.92;;;;;;;3.48;100.00;67168.31;5030501;28;20108;-90
2022/02/21 10:04:34;;;;;;;10.32;2.10;;;;;;;3.31;100.00;67147.06;5010150;28;20069;-88
2022/02/21 10:07:02;;;;;;;12.43;3.30;;;;;;;3.36;100.00;67155.34;5026570;28;20045;-90
2022/02/21 10:09:31;;;;;;;10.25;3.70;;;;;;;3.40;100.00;67154.63;5014301;28;20046;-88
2022/02/21 10:12:01;;;;;;;8.70;2.80;;;;;;;3.35;100.00;67148.97;4991113;28;20048;-88
2022/02/21 10:14:36;;;;;;;6.68;2.00;;;;;;;;;;5027533;28;20700;-88
2022/02/21 10:17:03;;;;;;;8.13;2.72;;;;;;;;;;5029155;28;20558;-90
2022/02/21 10:19:38;;;;;;;12.43;3.40;;;;;;;;;;5026106;28;20041;-89
2022/02/21 10:22:11;;;;;;;8.32;3.03;;;;;;;3.43;100.00;67157.44;5028561;28;20049;-88
2022/02/21 10:24:49;;;;;;;12.50;2.13;;;;;;;3.32;100.00;67148.78;5019532;28;20040;-88
2022/02/21 10:27:21;;;;;;;13.70;3.58;;;;;;;3.26;100.00;67142.00;5031791;28;20056;-89
2022/02/21 10:30:00;;;;;;;10.95;3.35;;;;;;;3.27;100.00;67139.94;5031683;28;20053;-90
2022/02/21 10:32:33;;;;;;;10.68;2.90;;;;;;;3.21;100.00;67136.38;5025184;28;20116;-88
2022/02/21 10:35:23;;;;;;;10.65;3.75;;;;;;;3.25;100.00;67140.31;5028379;28;20042;-87
2022/02/21 10:37:55;;;;;;;6.90;2.38;;;;;;;3.22;100.00;67136.94;5008683;28;20431;-87
2022/02/21 10:40:28;;;;;;;14.65;3.53;;;;;;;3.26;100.00;67141.47;5028269;28;20032;-89
2022/02/21 10:43:10;;;;;;;13.13;3.58;;;;;;;3.22;100.00;67129.59;5015732;28;20046;-90
2022/02/21 10:45:37;;;;;;;10.93;2.80;;;;;;;3.25;100.00;67140.91;4984851;28;20125;-88
2022/02/21 10:48:10;;;;;;;11.63;3.53;;;;;;;3.27;100.00;67140.50;5026684;28;20057;-88
2022/02/21 10:50:52;;;;;;;10.68;2.40;;;;;;;3.26;100.00;67139.38;5013797;28;20040;-90
2022/02/21 10:53:23;;;;;;;10.65;1.90;;;;;;;;;;5035375;28;20102;-88
2022/02/21 10:55:54;;;;;;;10.77;2.95;;;;;;;3.31;100.00;67150.28;5029639;28;20819;-90
2022/02/21 10:58:24;;;;;;;11.63;3.22;;;;;;;3.33;100.00;67147.28;5033236;28;20132;-87
2022/02/21 11:00:50;;;;;;;7.13;2.47;;;;;;;3.33;100.00;67149.91;5043326;28;20053;-87
2022/02/21 11:03:20;;;;;;;6.97;2.67;;;;;;;3.37;100.00;67146.53;5017319;28;20049;-88
2022/02/21 11:05:47;;;;;;;9.13;2.60;;;;;;;3.36;100.00;67150.09;5025012;28;20047;-90
2022/02/21 11:08:18;;;;;;;10.35;2.42;;;;;;;3.35;100.00;67151.59;5013860;28;20050;-89
2022/02/21 11:10:49;;;;;;;9.10;2.72;;;;;;;3.33;100.00;67147.28;5012153;28;20037;-89
2022/02/21 11:13:16;;;;;;;5.97;1.27;;;;;;;3.30;100.00;67143.31;5029895;28;20041;-89
2022/02/21 11:15:43;;;;;;;8.07;2.25;;;;;;;3.34;100.00;67148.41;5008306;28;20439;-91
2022/02/21 11:18:09;;;;;;;8.48;3.03;;;;;;;3.30;100.00;67148.59;5026654;28;20041;-89
2022/02/21 11:20:37;;;;;;;9.85;2.53;;;;;;;3.36;100.00;67150.09;5026228;28;20042;-88
2022/02/21 11:23:14;;;;;;;7.63;2.28;;;;;;;3.32;100.00;67148.78;5018113;28;20128;-90
2022/02/21 11:25:54;;;;;;;6.15;2.25;;;;;;;3.29;100.00;67148.03;5019310;28;20092;-91
2022/02/21 11:28:28;;;;;;;12.65;2.83;;;;;;;3.31;100.00;67145.03;5013508;28;20054;-89
2022/02/21 11:31:04;;;;;;;11.23;2.85;;;;;;;3.32;100.00;67146.16;5014687;28;20114;-87
2022/02/21 11:33:31;;;;;;;8.20;2.13;;;;;;;3.33;100.00;67147.28;5014165;28;20096;-90
2022/02/21 11:36:15;;;;;;;8.45;2.83;;;;;;;3.29;100.00;67145.41;5011162;28;20110;-90
2022/02/21 11:38:42;;;;;;;5.88;2.42;;;;;;;3.24;100.00;67136.56;5006351;28;20053;-90
2022/02/21 11:41:13;;;;;;;9.27;1.88;;;;;;;3.25;100.00;67140.91;5019589;28;20096;-89
2022/02/21 11:43:40;;;;;;;7.00;2.55;;;;;;;3.28;100.00;67144.28;4989037;28;20076;-88
2022/02/21 11:46:21;;;;;;;9.57;2.40;;;;;;;3.22;100.00;67134.88;5030868;28;20045;-88
2022/02/21 11:48:59;;;;;;;8.27;2.08;;;;;;;;;;5029859;28;20053;-87
2022/02/21 11:51:37;;;;;;;8.88;2.25;;;;;;;3.21;100.00;67133.19;5024423;28;20041;-91
2022/02/21 11:54:11;;;;;;;6.07;1.92;;;;;;;3.20;100.00;67126.81;5009969;28;20061;-87
2022/02/21 11:56:50;;;;;;;6.13;2.20;;;;;;;3.22;100.00;67136.94;5023231;28;20057;-89
2022/02/21 11:59:21;;;;;;;4.80;1.60;;;;;;;;;;5034857;28;20120;-87
2022/02/21 12:02:05;;;;;;;11.30;2.05;;;;;;;3.16;100.00;67128.09;5038966;28;20069;-89
2022/02/21 12:04:57;;;;;;;7.20;2.83;;;;;;;3.18;100.00;67133.00;5022115;28;20045;-88
2022/02/21 12:07:37;;;;;;;7.18;2.13;;;;;;;3.20;100.00;67132.63;5011198;28;20049;-88
2022/02/21 12:10:22;;;;;;;8.93;2.15;;;;;;;3.21;100.00;67133.19;5001912;28;20046;-90